sensor_id;sensor_type;location;lat;lon;timestamp;temperature;humidity
30206;DHT22;17010;51.306;3.150;2022-12-10T00:01:54;1.70;99.90
30206;DHT22;17010;51.306;3.150;2022-12-10T00:04:21;1.70;99.90
30206;DHT22;17010;51.306;3.150;2022-12-10T00:06:47;1.70;99.90
30206;DHT22;17010;51.306;3.150;2022-12-10T00:09:16;1.70;99.90
30206;DHT22;17010;51.306;3.150;2022-12-10T00:11:42;1.70;99.90
30206;DHT22;17010;51.306;3.150;2022-12-10T00:14:09;1.70;99.90
30206;DHT22;17010;51.306;3.150;2022-12-10T00:16:36;1.60;99.90
30206;DHT22;17010;51.306;3.150;2022-12-10T00:19:03;1.70;99.90
30206;DHT22;17010;51.306;3.150;2022-12-10T00:21:31;1.60;99.90
30206;DHT22;17010;51.306;3.150;2022-12-10T00:23:58;1.60;99.90
30206;DHT22;17010;51.306;3.150;2022-12-10T00:26:27;1.60;99.90
30206;DHT22;17010;51.306;3.150;2022-12-10T00:28:54;1.60;99.90
30206;DHT22;17010;51.306;3.150;2022-12-10T00:31:23;1.60;99.90
30206;DHT22;17010;51.306;3.150;2022-12-10T00:33:50;1.60;99.90
30206;DHT22;17010;51.306;3.150;2022-12-10T00:36:21;1.60;99.90
30206;DHT22;17010;51.306;3.150;2022-12-10T00:38:48;1.60;99.90
30206;DHT22;17010;51.306;3.150;2022-12-10T00:41:15;1.60;99.90
30206;DHT22;17010;51.306;3.150;2022-12-10T00:43:42;1.50;99.90
30206;DHT22;17010;51.306;3.150;2022-12-10T00:46:09;1.60;99.90
30206;DHT22;17010;51.306;3.150;2022-12-10T00:48:35;1.60;99.90
30206;DHT22;17010;51.306;3.150;2022-12-10T00:51:07;1.60;99.90
30206;DHT22;17010;51.306;3.150;2022-12-10T00:53:34;1.60;99.90
30206;DHT22;17010;51.306;3.150;2022-12-10T00:56:01;1.50;99.90
30206;DHT22;17010;51.306;3.150;2022-12-10T00:58:31;1.60;99.90
30206;DHT22;17010;51.306;3.150;2022-12-10T01:01:36;1.60;99.90
30206;DHT22;17010;51.306;3.150;2022-12-10T01:04:14;1.70;99.90
30206;DHT22;17010;51.306;3.150;2022-12-10T01:06:44;1.70;99.90
30206;DHT22;17010;51.306;3.150;2022-12-10T01:09:12;1.70;99.90
30206;DHT22;17010;51.306;3.150;2022-12-10T01:11:41;1.70;99.90
30206;DHT22;17010;51.306;3.150;2022-12-10T01:14:10;1.70;99.90
30206;DHT22;17010;51.306;3.150;2022-12-10T01:16:37;1.70;99.90
30206;DHT22;17010;51.306;3.150;2022-12-10T01:19:03;1.70;99.90
30206;DHT22;17010;51.306;3.150;2022-12-10T01:21:30;1.60;99.90
30206;DHT22;17010;51.306;3.150;2022-12-10T01:23:56;1.60;99.90
30206;DHT22;17010;51.306;3.150;2022-12-10T01:26:25;1.60;99.90
30206;DHT22;17010;51.306;3.150;2022-12-10T01:28:52;1.70;99.90
30206;DHT22;17010;51.306;3.150;2022-12-10T01:31:22;1.60;99.90
30206;DHT22;17010;51.306;3.150;2022-12-10T01:33:48;1.60;99.90
30206;DHT22;17010;51.306;3.150;2022-12-10T01:36:21;1.60;99.90
30206;DHT22;17010;51.306;3.150;2022-12-10T01:38:48;1.60;99.90
30206;DHT22;17010;51.306;3.150;2022-12-10T01:41:21;1.60;99.90
30206;DHT22;17010;51.306;3.150;2022-12-10T01:43:56;1.60;99.90
30206;DHT22;17010;51.306;3.150;2022-12-10T01:46:24;1.60;99.90
30206;DHT22;17010;51.306;3.150;2022-12-10T01:48:51;1.60;99.90
30206;DHT22;17010;51.306;3.150;2022-12-10T01:51:17;1.70;99.90
30206;DHT22;17010;51.306;3.150;2022-12-10T01:53:43;1.70;99.90
30206;DHT22;17010;51.306;3.150;2022-12-10T01:56:10;1.60;99.90
30206;DHT22;17010;51.306;3.150;2022-12-10T01:58:37;1.60;99.90
30206;DHT22;17010;51.306;3.150;2022-12-10T02:04:23;1.60;99.90
30206;DHT22;17010;51.306;3.150;2022-12-10T02:09:42;1.60;99.90
30206;DHT22;17010;51.306;3.150;2022-12-10T02:12:34;1.50;99.90
30206;DHT22;17010;51.306;3.150;2022-12-10T02:20:19;1.60;99.90
30206;DHT22;17010;51.306;3.150;2022-12-10T02:25:59;1.60;99.90
30206;DHT22;17010;51.306;3.150;2022-12-10T02:29:12;1.50;99.90
30206;DHT22;17010;51.306;3.150;2022-12-10T02:31:40;1.50;99.90
30206;DHT22;17010;51.306;3.150;2022-12-10T02:34:08;1.50;99.90
30206;DHT22;17010;51.306;3.150;2022-12-10T02:36:37;1.50;99.90
30206;DHT22;17010;51.306;3.150;2022-12-10T02:39:08;1.50;99.90
30206;DHT22;17010;51.306;3.150;2022-12-10T02:41:40;1.50;99.90
30206;DHT22;17010;51.306;3.150;2022-12-10T02:44:10;1.60;99.90
30206;DHT22;17010;51.306;3.150;2022-12-10T02:46:37;1.60;99.90
30206;DHT22;17010;51.306;3.150;2022-12-10T02:49:05;1.60;99.90
30206;DHT22;17010;51.306;3.150;2022-12-10T02:51:31;1.60;99.90
30206;DHT22;17010;51.306;3.150;2022-12-10T02:54:03;1.60;99.90
30206;DHT22;17010;51.306;3.150;2022-12-10T02:56:40;1.50;99.90
30206;DHT22;17010;51.306;3.150;2022-12-10T03:02:04;1.50;99.90
30206;DHT22;17010;51.306;3.150;2022-12-10T03:04:39;1.50;99.90
30206;DHT22;17010;51.306;3.150;2022-12-10T03:07:12;1.50;99.90
30206;DHT22;17010;51.306;3.150;2022-12-10T03:09:47;1.50;99.90
30206;DHT22;17010;51.306;3.150;2022-12-10T03:12:19;1.50;99.90
30206;DHT22;17010;51.306;3.150;2022-12-10T03:14:47;1.50;99.90
30206;DHT22;17010;51.306;3.150;2022-12-10T03:17:14;1.50;99.90
30206;DHT22;17010;51.306;3.150;2022-12-10T03:19:46;1.50;99.90
30206;DHT22;17010;51.306;3.150;2022-12-10T03:22:14;1.50;99.90
30206;DHT22;17010;51.306;3.150;2022-12-10T03:24:42;1.40;99.90
30206;DHT22;17010;51.306;3.150;2022-12-10T03:27:09;1.40;99.90
30206;DHT22;17010;51.306;3.150;2022-12-10T03:29:45;1.40;99.90
30206;DHT22;17010;51.306;3.150;2022-12-10T03:32:12;1.40;99.90
30206;DHT22;17010;51.306;3.150;2022-12-10T03:34:39;1.40;99.90
30206;DHT22;17010;51.306;3.150;2022-12-10T03:37:05;1.40;99.90
30206;DHT22;17010;51.306;3.150;2022-12-10T03:39:32;1.40;99.90
30206;DHT22;17010;51.306;3.150;2022-12-10T03:41:58;1.40;99.90
30206;DHT22;17010;51.306;3.150;2022-12-10T03:44:29;1.40;99.90
30206;DHT22;17010;51.306;3.150;2022-12-10T03:46:55;1.30;99.90
30206;DHT22;17010;51.306;3.150;2022-12-10T03:49:21;1.30;99.90
30206;DHT22;17010;51.306;3.150;2022-12-10T03:51:48;1.30;99.90
30206;DHT22;17010;51.306;3.150;2022-12-10T03:54:14;1.40;99.90
30206;DHT22;17010;51.306;3.150;2022-12-10T03:56:40;1.40;99.90
30206;DHT22;17010;51.306;3.150;2022-12-10T03:59:06;1.40;99.90
30206;DHT22;17010;51.306;3.150;2022-12-10T04:01:33;1.40;99.90
30206;DHT22;17010;51.306;3.150;2022-12-10T04:03:59;1.40;99.90
30206;DHT22;17010;51.306;3.150;2022-12-10T04:06:25;1.40;99.90
30206;DHT22;17010;51.306;3.150;2022-12-10T04:08:52;1.40;99.90
30206;DHT22;17010;51.306;3.150;2022-12-10T04:11:19;1.40;99.90
30206;DHT22;17010;51.306;3.150;2022-12-10T04:13:45;1.30;99.90
30206;DHT22;17010;51.306;3.150;2022-12-10T04:16:31;1.30;99.90
30206;DHT22;17010;51.306;3.150;2022-12-10T04:19:01;1.30;99.90
30206;DHT22;17010;51.306;3.150;2022-12-10T04:21:29;1.30;99.90
30206;DHT22;17010;51.306;3.150;2022-12-10T04:24:15;1.20;99.90
30206;DHT22;17010;51.306;3.150;2022-12-10T04:27:11;1.20;99.90
30206;DHT22;17010;51.306;3.150;2022-12-10T04:29:38;1.20;99.90
30206;DHT22;17010;51.306;3.150;2022-12-10T04:32:04;1.10;99.90
30206;DHT22;17010;51.306;3.150;2022-12-10T04:34:31;1.20;99.90
30206;DHT22;17010;51.306;3.150;2022-12-10T04:36:58;1.10;99.90
30206;DHT22;17010;51.306;3.150;2022-12-10T04:39:24;1.10;99.90
30206;DHT22;17010;51.306;3.150;2022-12-10T04:41:51;1.20;99.90
30206;DHT22;17010;51.306;3.150;2022-12-10T04:44:18;1.20;99.90
30206;DHT22;17010;51.306;3.150;2022-12-10T04:46:45;1.10;99.90
30206;DHT22;17010;51.306;3.150;2022-12-10T04:49:11;1.10;99.90
30206;DHT22;17010;51.306;3.150;2022-12-10T04:51:38;1.10;99.90
30206;DHT22;17010;51.306;3.150;2022-12-10T04:54:04;1.10;99.90
30206;DHT22;17010;51.306;3.150;2022-12-10T04:56:31;1.00;99.90
30206;DHT22;17010;51.306;3.150;2022-12-10T04:58:58;1.00;99.90
30206;DHT22;17010;51.306;3.150;2022-12-10T05:01:25;1.00;99.90
30206;DHT22;17010;51.306;3.150;2022-12-10T05:03:51;1.00;99.90
30206;DHT22;17010;51.306;3.150;2022-12-10T05:06:18;0.90;99.90
30206;DHT22;17010;51.306;3.150;2022-12-10T05:08:44;1.00;99.90
30206;DHT22;17010;51.306;3.150;2022-12-10T05:11:13;0.90;99.90
30206;DHT22;17010;51.306;3.150;2022-12-10T05:13:40;1.00;99.90
30206;DHT22;17010;51.306;3.150;2022-12-10T05:16:07;0.90;99.90
30206;DHT22;17010;51.306;3.150;2022-12-10T05:18:35;0.90;99.90
30206;DHT22;17010;51.306;3.150;2022-12-10T05:21:03;0.90;99.90
30206;DHT22;17010;51.306;3.150;2022-12-10T05:23:30;0.90;99.90
30206;DHT22;17010;51.306;3.150;2022-12-10T05:26:03;0.90;99.90
30206;DHT22;17010;51.306;3.150;2022-12-10T05:28:31;0.90;99.90
30206;DHT22;17010;51.306;3.150;2022-12-10T05:30:57;1.00;99.90
30206;DHT22;17010;51.306;3.150;2022-12-10T05:33:24;0.90;99.90
30206;DHT22;17010;51.306;3.150;2022-12-10T05:35:59;0.90;99.90
30206;DHT22;17010;51.306;3.150;2022-12-10T05:38:27;0.90;99.90
30206;DHT22;17010;51.306;3.150;2022-12-10T05:40:53;0.90;99.90
30206;DHT22;17010;51.306;3.150;2022-12-10T05:43:19;0.90;99.90
30206;DHT22;17010;51.306;3.150;2022-12-10T05:45:46;0.90;99.90
30206;DHT22;17010;51.306;3.150;2022-12-10T05:48:13;0.90;99.90
30206;DHT22;17010;51.306;3.150;2022-12-10T05:50:40;0.80;99.90
30206;DHT22;17010;51.306;3.150;2022-12-10T05:53:06;0.90;99.90
30206;DHT22;17010;51.306;3.150;2022-12-10T05:55:32;0.80;99.90
30206;DHT22;17010;51.306;3.150;2022-12-10T05:57:59;0.80;99.90
30206;DHT22;17010;51.306;3.150;2022-12-10T06:00:27;0.80;99.90
30206;DHT22;17010;51.306;3.150;2022-12-10T06:02:54;0.80;99.90
30206;DHT22;17010;51.306;3.150;2022-12-10T06:05:20;0.80;99.90
30206;DHT22;17010;51.306;3.150;2022-12-10T06:07:47;0.80;99.90
30206;DHT22;17010;51.306;3.150;2022-12-10T06:10:13;0.80;99.90
30206;DHT22;17010;51.306;3.150;2022-12-10T06:12:39;0.80;99.90
30206;DHT22;17010;51.306;3.150;2022-12-10T06:15:05;0.80;99.90
30206;DHT22;17010;51.306;3.150;2022-12-10T06:17:32;0.80;99.90
30206;DHT22;17010;51.306;3.150;2022-12-10T06:19:58;0.80;99.90
30206;DHT22;17010;51.306;3.150;2022-12-10T06:22:24;0.80;99.90
30206;DHT22;17010;51.306;3.150;2022-12-10T06:24:50;0.70;99.90
30206;DHT22;17010;51.306;3.150;2022-12-10T06:27:16;0.70;99.90
30206;DHT22;17010;51.306;3.150;2022-12-10T06:29:44;0.80;99.90
30206;DHT22;17010;51.306;3.150;2022-12-10T06:32:10;0.80;99.90
30206;DHT22;17010;51.306;3.150;2022-12-10T06:34:36;0.80;99.90
30206;DHT22;17010;51.306;3.150;2022-12-10T06:37:03;0.80;99.90
30206;DHT22;17010;51.306;3.150;2022-12-10T06:39:29;0.80;99.90
30206;DHT22;17010;51.306;3.150;2022-12-10T06:41:55;0.80;99.90
30206;DHT22;17010;51.306;3.150;2022-12-10T06:44:21;0.80;99.90
30206;DHT22;17010;51.306;3.150;2022-12-10T06:46:47;0.80;99.90
30206;DHT22;17010;51.306;3.150;2022-12-10T06:49:14;0.80;99.90
30206;DHT22;17010;51.306;3.150;2022-12-10T06:51:40;0.80;99.90
30206;DHT22;17010;51.306;3.150;2022-12-10T06:54:06;0.80;99.90
30206;DHT22;17010;51.306;3.150;2022-12-10T06:56:32;0.80;99.90
30206;DHT22;17010;51.306;3.150;2022-12-10T06:58:58;0.80;99.90
30206;DHT22;17010;51.306;3.150;2022-12-10T07:01:24;0.80;99.90
30206;DHT22;17010;51.306;3.150;2022-12-10T07:03:55;0.80;99.90
30206;DHT22;17010;51.306;3.150;2022-12-10T07:06:22;0.90;99.90
30206;DHT22;17010;51.306;3.150;2022-12-10T07:08:49;0.90;99.90
30206;DHT22;17010;51.306;3.150;2022-12-10T07:11:18;0.90;99.90
30206;DHT22;17010;51.306;3.150;2022-12-10T07:13:45;0.90;99.90
30206;DHT22;17010;51.306;3.150;2022-12-10T07:16:21;0.90;99.90
30206;DHT22;17010;51.306;3.150;2022-12-10T07:18:50;0.90;99.90
30206;DHT22;17010;51.306;3.150;2022-12-10T07:21:27;0.90;99.90
30206;DHT22;17010;51.306;3.150;2022-12-10T07:23:55;1.00;99.90
30206;DHT22;17010;51.306;3.150;2022-12-10T07:26:24;1.00;99.90
30206;DHT22;17010;51.306;3.150;2022-12-10T07:28:50;0.90;99.90
30206;DHT22;17010;51.306;3.150;2022-12-10T07:31:17;0.90;99.90
30206;DHT22;17010;51.306;3.150;2022-12-10T07:33:43;0.90;99.90
30206;DHT22;17010;51.306;3.150;2022-12-10T07:36:10;0.90;99.90
30206;DHT22;17010;51.306;3.150;2022-12-10T07:38:37;0.90;99.90
30206;DHT22;17010;51.306;3.150;2022-12-10T07:41:04;0.90;99.90
30206;DHT22;17010;51.306;3.150;2022-12-10T07:43:33;0.90;99.90
30206;DHT22;17010;51.306;3.150;2022-12-10T07:46:08;0.80;99.90
30206;DHT22;17010;51.306;3.150;2022-12-10T07:48:35;0.80;99.90
30206;DHT22;17010;51.306;3.150;2022-12-10T07:51:02;0.80;99.90
30206;DHT22;17010;51.306;3.150;2022-12-10T07:53:28;0.80;99.90
30206;DHT22;17010;51.306;3.150;2022-12-10T07:55:55;0.90;99.90
30206;DHT22;17010;51.306;3.150;2022-12-10T07:58:21;0.80;99.90
30206;DHT22;17010;51.306;3.150;2022-12-10T08:00:47;0.90;99.90
30206;DHT22;17010;51.306;3.150;2022-12-10T08:03:13;0.90;99.90
30206;DHT22;17010;51.306;3.150;2022-12-10T08:05:39;0.90;99.90
30206;DHT22;17010;51.306;3.150;2022-12-10T08:08:06;0.90;99.90
30206;DHT22;17010;51.306;3.150;2022-12-10T08:10:36;0.90;99.90
30206;DHT22;17010;51.306;3.150;2022-12-10T08:13:03;1.00;99.90
30206;DHT22;17010;51.306;3.150;2022-12-10T08:15:29;1.00;99.90
30206;DHT22;17010;51.306;3.150;2022-12-10T08:17:56;1.00;99.90
30206;DHT22;17010;51.306;3.150;2022-12-10T08:20:23;1.00;99.90
30206;DHT22;17010;51.306;3.150;2022-12-10T08:22:50;1.10;99.90
30206;DHT22;17010;51.306;3.150;2022-12-10T08:25:17;1.10;99.90
30206;DHT22;17010;51.306;3.150;2022-12-10T08:27:43;1.10;99.90
30206;DHT22;17010;51.306;3.150;2022-12-10T08:30:09;1.10;99.90
30206;DHT22;17010;51.306;3.150;2022-12-10T08:32:35;1.10;99.90
30206;DHT22;17010;51.306;3.150;2022-12-10T08:35:02;1.00;99.90
30206;DHT22;17010;51.306;3.150;2022-12-10T08:37:28;1.10;99.90
30206;DHT22;17010;51.306;3.150;2022-12-10T08:39:54;1.10;99.90
30206;DHT22;17010;51.306;3.150;2022-12-10T08:42:20;1.10;99.90
30206;DHT22;17010;51.306;3.150;2022-12-10T08:44:46;1.10;99.90
30206;DHT22;17010;51.306;3.150;2022-12-10T08:47:13;1.10;99.90
30206;DHT22;17010;51.306;3.150;2022-12-10T08:49:39;1.10;99.90
30206;DHT22;17010;51.306;3.150;2022-12-10T08:52:05;1.10;99.90
30206;DHT22;17010;51.306;3.150;2022-12-10T08:54:31;1.10;99.90
30206;DHT22;17010;51.306;3.150;2022-12-10T08:56:57;1.10;99.90
30206;DHT22;17010;51.306;3.150;2022-12-10T08:59:23;1.20;99.90
30206;DHT22;17010;51.306;3.150;2022-12-10T09:01:51;1.30;99.90
30206;DHT22;17010;51.306;3.150;2022-12-10T09:04:18;1.30;99.90
30206;DHT22;17010;51.306;3.150;2022-12-10T09:06:44;1.40;99.90
30206;DHT22;17010;51.306;3.150;2022-12-10T09:09:13;1.50;99.90
30206;DHT22;17010;51.306;3.150;2022-12-10T09:11:39;1.50;99.90
30206;DHT22;17010;51.306;3.150;2022-12-10T09:14:05;1.60;99.90
30206;DHT22;17010;51.306;3.150;2022-12-10T09:16:35;1.70;99.90
30206;DHT22;17010;51.306;3.150;2022-12-10T09:19:03;1.70;99.90
30206;DHT22;17010;51.306;3.150;2022-12-10T09:21:29;1.70;99.90
30206;DHT22;17010;51.306;3.150;2022-12-10T09:23:59;1.70;99.90
30206;DHT22;17010;51.306;3.150;2022-12-10T09:26:26;1.80;99.90
30206;DHT22;17010;51.306;3.150;2022-12-10T09:28:53;1.90;99.90
30206;DHT22;17010;51.306;3.150;2022-12-10T09:31:20;2.00;99.90
30206;DHT22;17010;51.306;3.150;2022-12-10T09:33:51;2.20;99.90
30206;DHT22;17010;51.306;3.150;2022-12-10T09:36:18;2.40;99.90
30206;DHT22;17010;51.306;3.150;2022-12-10T09:38:44;2.50;99.90
30206;DHT22;17010;51.306;3.150;2022-12-10T09:43:47;2.60;99.90
30206;DHT22;17010;51.306;3.150;2022-12-10T09:49:21;2.60;99.90
30206;DHT22;17010;51.306;3.150;2022-12-10T09:51:49;2.70;99.90
30206;DHT22;17010;51.306;3.150;2022-12-10T09:54:30;2.70;99.90
30206;DHT22;17010;51.306;3.150;2022-12-10T09:56:57;2.80;99.90
30206;DHT22;17010;51.306;3.150;2022-12-10T09:59:51;2.80;99.90
30206;DHT22;17010;51.306;3.150;2022-12-10T10:02:30;2.80;99.90
30206;DHT22;17010;51.306;3.150;2022-12-10T10:07:34;2.90;99.90
30206;DHT22;17010;51.306;3.150;2022-12-10T10:10:04;2.90;99.90
30206;DHT22;17010;51.306;3.150;2022-12-10T10:12:31;2.90;99.90
30206;DHT22;17010;51.306;3.150;2022-12-10T10:14:59;2.90;99.90
30206;DHT22;17010;51.306;3.150;2022-12-10T10:17:34;3.00;99.90
30206;DHT22;17010;51.306;3.150;2022-12-10T10:20:01;3.00;99.90
30206;DHT22;17010;51.306;3.150;2022-12-10T10:22:27;3.10;99.90
30206;DHT22;17010;51.306;3.150;2022-12-10T10:24:53;3.20;99.90
30206;DHT22;17010;51.306;3.150;2022-12-10T10:27:30;3.20;99.90
30206;DHT22;17010;51.306;3.150;2022-12-10T10:30:00;3.20;99.90
30206;DHT22;17010;51.306;3.150;2022-12-10T10:35:02;3.30;99.90
30206;DHT22;17010;51.306;3.150;2022-12-10T10:40:01;3.30;99.90
30206;DHT22;17010;51.306;3.150;2022-12-10T10:42:45;3.20;99.90
30206;DHT22;17010;51.306;3.150;2022-12-10T10:45:33;3.30;99.90
30206;DHT22;17010;51.306;3.150;2022-12-10T10:50:48;3.30;99.90
30206;DHT22;17010;51.306;3.150;2022-12-10T10:53:28;3.40;99.90
30206;DHT22;17010;51.306;3.150;2022-12-10T10:55:59;3.40;99.90
30206;DHT22;17010;51.306;3.150;2022-12-10T10:58:26;3.40;99.90
30206;DHT22;17010;51.306;3.150;2022-12-10T11:01:01;3.50;99.90
30206;DHT22;17010;51.306;3.150;2022-12-10T11:03:29;3.50;99.90
30206;DHT22;17010;51.306;3.150;2022-12-10T11:05:57;3.60;99.90
30206;DHT22;17010;51.306;3.150;2022-12-10T11:08:26;3.70;99.90
30206;DHT22;17010;51.306;3.150;2022-12-10T11:11:03;3.70;99.90
30206;DHT22;17010;51.306;3.150;2022-12-10T11:13:34;3.80;99.90
30206;DHT22;17010;51.306;3.150;2022-12-10T11:21:27;3.80;99.90
30206;DHT22;17010;51.306;3.150;2022-12-10T11:23:54;3.90;99.90
30206;DHT22;17010;51.306;3.150;2022-12-10T11:26:39;3.90;99.90
30206;DHT22;17010;51.306;3.150;2022-12-10T11:42:52;4.20;99.90
30206;DHT22;17010;51.306;3.150;2022-12-10T11:56:59;5.20;99.90
30206;DHT22;17010;51.306;3.150;2022-12-10T11:59:42;5.20;99.90
30206;DHT22;17010;51.306;3.150;2022-12-10T12:12:41;5.10;99.90
30206;DHT22;17010;51.306;3.150;2022-12-10T12:15:19;5.10;99.90
30206;DHT22;17010;51.306;3.150;2022-12-10T12:17:59;5.20;99.90
30206;DHT22;17010;51.306;3.150;2022-12-10T12:20:43;5.20;99.90
30206;DHT22;17010;51.306;3.150;2022-12-10T12:25:46;5.00;99.90
30206;DHT22;17010;51.306;3.150;2022-12-10T12:28:41;5.00;99.90
30206;DHT22;17010;51.306;3.150;2022-12-10T12:31:53;4.90;99.90
30206;DHT22;17010;51.306;3.150;2022-12-10T12:34:15;4.90;99.90
30206;DHT22;17010;51.306;3.150;2022-12-10T12:36:43;4.80;99.90
30206;DHT22;17010;51.306;3.150;2022-12-10T12:42:02;4.80;99.90
30206;DHT22;17010;51.306;3.150;2022-12-10T12:47:46;4.80;99.90
30206;DHT22;17010;51.306;3.150;2022-12-10T12:53:07;4.80;99.90
30206;DHT22;17010;51.306;3.150;2022-12-10T12:58:28;4.60;99.90
30206;DHT22;17010;51.306;3.150;2022-12-10T13:01:05;4.60;99.90
30206;DHT22;17010;51.306;3.150;2022-12-10T13:03:36;4.60;99.90
30206;DHT22;17010;51.306;3.150;2022-12-10T13:11:42;4.60;99.90
30206;DHT22;17010;51.306;3.150;2022-12-10T13:27:31;4.30;99.90
30206;DHT22;17010;51.306;3.150;2022-12-10T13:30:25;4.30;99.90
30206;DHT22;17010;51.306;3.150;2022-12-10T13:33:00;4.30;99.90
30206;DHT22;17010;51.306;3.150;2022-12-10T13:35:30;4.40;99.90
30206;DHT22;17010;51.306;3.150;2022-12-10T13:38:15;4.50;99.90
30206;DHT22;17010;51.306;3.150;2022-12-10T13:40:43;4.60;99.90
30206;DHT22;17010;51.306;3.150;2022-12-10T13:43:40;4.70;99.90
30206;DHT22;17010;51.306;3.150;2022-12-10T13:46:35;4.80;99.90
30206;DHT22;17010;51.306;3.150;2022-12-10T13:49:24;5.00;99.90
30206;DHT22;17010;51.306;3.150;2022-12-10T13:54:43;5.30;99.90
30206;DHT22;17010;51.306;3.150;2022-12-10T14:02:52;5.90;99.90
30206;DHT22;17010;51.306;3.150;2022-12-10T14:05:23;6.00;99.90
30206;DHT22;17010;51.306;3.150;2022-12-10T14:07:52;6.10;99.90
30206;DHT22;17010;51.306;3.150;2022-12-10T14:10:21;6.10;99.90
30206;DHT22;17010;51.306;3.150;2022-12-10T14:12:49;6.20;99.90
30206;DHT22;17010;51.306;3.150;2022-12-10T14:15:20;6.30;99.90
30206;DHT22;17010;51.306;3.150;2022-12-10T14:17:50;6.40;99.90
30206;DHT22;17010;51.306;3.150;2022-12-10T14:20:22;6.40;99.90
30206;DHT22;17010;51.306;3.150;2022-12-10T14:22:50;6.40;99.90
30206;DHT22;17010;51.306;3.150;2022-12-10T14:25:20;6.40;99.90
30206;DHT22;17010;51.306;3.150;2022-12-10T14:27:49;6.40;99.90
30206;DHT22;17010;51.306;3.150;2022-12-10T14:30:21;6.30;99.90
30206;DHT22;17010;51.306;3.150;2022-12-10T14:32:47;5.80;99.90
30206;DHT22;17010;51.306;3.150;2022-12-10T14:35:25;5.50;99.90
30206;DHT22;17010;51.306;3.150;2022-12-10T14:37:54;5.10;99.90
30206;DHT22;17010;51.306;3.150;2022-12-10T14:40:24;4.90;99.90
30206;DHT22;17010;51.306;3.150;2022-12-10T14:42:54;4.80;99.90
30206;DHT22;17010;51.306;3.150;2022-12-10T14:45:22;4.90;99.90
30206;DHT22;17010;51.306;3.150;2022-12-10T14:47:48;5.00;99.90
30206;DHT22;17010;51.306;3.150;2022-12-10T14:50:16;5.10;99.90
30206;DHT22;17010;51.306;3.150;2022-12-10T14:52:50;5.20;99.90
30206;DHT22;17010;51.306;3.150;2022-12-10T14:55:20;5.30;99.90
30206;DHT22;17010;51.306;3.150;2022-12-10T14:57:54;5.40;99.90
30206;DHT22;17010;51.306;3.150;2022-12-10T15:00:22;5.50;99.90
30206;DHT22;17010;51.306;3.150;2022-12-10T15:02:54;5.40;99.90
30206;DHT22;17010;51.306;3.150;2022-12-10T15:05:25;5.30;99.90
30206;DHT22;17010;51.306;3.150;2022-12-10T15:08:00;5.30;99.90
30206;DHT22;17010;51.306;3.150;2022-12-10T15:10:34;5.20;99.90
30206;DHT22;17010;51.306;3.150;2022-12-10T15:13:16;5.10;99.90
30206;DHT22;17010;51.306;3.150;2022-12-10T15:15:48;4.90;99.90
30206;DHT22;17010;51.306;3.150;2022-12-10T15:18:28;4.80;99.90
30206;DHT22;17010;51.306;3.150;2022-12-10T15:21:15;4.60;99.90
30206;DHT22;17010;51.306;3.150;2022-12-10T15:23:48;4.50;99.90
30206;DHT22;17010;51.306;3.150;2022-12-10T15:28:45;4.30;99.90
30206;DHT22;17010;51.306;3.150;2022-12-10T15:37:05;4.20;99.90
30206;DHT22;17010;51.306;3.150;2022-12-10T15:39:43;4.20;99.90
30206;DHT22;17010;51.306;3.150;2022-12-10T15:42:40;4.10;99.90
30206;DHT22;17010;51.306;3.150;2022-12-10T15:45:38;4.10;99.90
30206;DHT22;17010;51.306;3.150;2022-12-10T15:48:12;4.10;99.90
30206;DHT22;17010;51.306;3.150;2022-12-10T15:50:42;4.00;99.90
30206;DHT22;17010;51.306;3.150;2022-12-10T15:53:12;4.00;99.90
30206;DHT22;17010;51.306;3.150;2022-12-10T15:55:39;4.00;99.90
30206;DHT22;17010;51.306;3.150;2022-12-10T15:58:11;4.00;99.90
30206;DHT22;17010;51.306;3.150;2022-12-10T16:00:47;4.00;99.90
30206;DHT22;17010;51.306;3.150;2022-12-10T16:03:25;4.10;99.90
30206;DHT22;17010;51.306;3.150;2022-12-10T16:05:54;4.10;99.90
30206;DHT22;17010;51.306;3.150;2022-12-10T16:08:27;4.10;99.90
30206;DHT22;17010;51.306;3.150;2022-12-10T16:10:58;4.10;99.90
30206;DHT22;17010;51.306;3.150;2022-12-10T16:13:35;4.10;99.90
30206;DHT22;17010;51.306;3.150;2022-12-10T16:16:08;4.20;99.90
30206;DHT22;17010;51.306;3.150;2022-12-10T16:18:38;4.20;99.90
30206;DHT22;17010;51.306;3.150;2022-12-10T16:21:11;4.20;99.90
30206;DHT22;17010;51.306;3.150;2022-12-10T16:23:39;4.20;99.90
30206;DHT22;17010;51.306;3.150;2022-12-10T16:26:18;4.20;99.90
30206;DHT22;17010;51.306;3.150;2022-12-10T16:28:52;4.20;99.90
30206;DHT22;17010;51.306;3.150;2022-12-10T16:31:20;4.20;99.90
30206;DHT22;17010;51.306;3.150;2022-12-10T16:34:20;4.30;99.90
30206;DHT22;17010;51.306;3.150;2022-12-10T16:36:46;4.20;99.90
30206;DHT22;17010;51.306;3.150;2022-12-10T16:39:14;4.20;99.90
30206;DHT22;17010;51.306;3.150;2022-12-10T16:41:42;4.20;99.90
30206;DHT22;17010;51.306;3.150;2022-12-10T16:44:12;4.20;99.90
30206;DHT22;17010;51.306;3.150;2022-12-10T16:46:40;4.20;99.90
30206;DHT22;17010;51.306;3.150;2022-12-10T16:49:07;4.20;99.90
30206;DHT22;17010;51.306;3.150;2022-12-10T16:51:33;4.10;99.90
30206;DHT22;17010;51.306;3.150;2022-12-10T16:53:59;4.10;99.90
30206;DHT22;17010;51.306;3.150;2022-12-10T16:56:29;4.10;99.90
30206;DHT22;17010;51.306;3.150;2022-12-10T16:59:00;4.00;99.90
30206;DHT22;17010;51.306;3.150;2022-12-10T17:01:39;4.00;99.90
30206;DHT22;17010;51.306;3.150;2022-12-10T17:04:08;4.00;99.90
30206;DHT22;17010;51.306;3.150;2022-12-10T17:06:40;3.90;99.90
30206;DHT22;17010;51.306;3.150;2022-12-10T17:09:07;3.90;99.90
30206;DHT22;17010;51.306;3.150;2022-12-10T17:11:39;3.80;99.90
30206;DHT22;17010;51.306;3.150;2022-12-10T17:14:30;3.80;99.90
30206;DHT22;17010;51.306;3.150;2022-12-10T17:16:58;3.70;99.90
30206;DHT22;17010;51.306;3.150;2022-12-10T17:19:30;3.70;99.90
30206;DHT22;17010;51.306;3.150;2022-12-10T17:21:56;3.70;99.90
30206;DHT22;17010;51.306;3.150;2022-12-10T17:24:22;3.70;99.90
30206;DHT22;17010;51.306;3.150;2022-12-10T17:26:49;3.60;99.90
30206;DHT22;17010;51.306;3.150;2022-12-10T17:29:21;3.60;99.90
30206;DHT22;17010;51.306;3.150;2022-12-10T17:31:48;3.50;99.90
30206;DHT22;17010;51.306;3.150;2022-12-10T17:34:15;3.50;99.90
30206;DHT22;17010;51.306;3.150;2022-12-10T17:36:41;3.50;99.90
30206;DHT22;17010;51.306;3.150;2022-12-10T17:39:14;3.40;99.90
30206;DHT22;17010;51.306;3.150;2022-12-10T17:41:41;3.40;99.90
30206;DHT22;17010;51.306;3.150;2022-12-10T17:44:07;3.40;99.90
30206;DHT22;17010;51.306;3.150;2022-12-10T17:46:33;3.30;99.90
30206;DHT22;17010;51.306;3.150;2022-12-10T17:49:00;3.30;99.90
30206;DHT22;17010;51.306;3.150;2022-12-10T17:51:28;3.30;99.90
30206;DHT22;17010;51.306;3.150;2022-12-10T17:53:54;3.30;99.90
30206;DHT22;17010;51.306;3.150;2022-12-10T17:56:23;3.30;99.90
30206;DHT22;17010;51.306;3.150;2022-12-10T17:58:51;3.30;99.90
30206;DHT22;17010;51.306;3.150;2022-12-10T18:01:18;3.30;99.90
30206;DHT22;17010;51.306;3.150;2022-12-10T18:03:45;3.30;99.90
30206;DHT22;17010;51.306;3.150;2022-12-10T18:06:23;3.30;99.90
30206;DHT22;17010;51.306;3.150;2022-12-10T18:08:51;3.40;99.90